Terminal Aerodrome Forecast
Issued by NWS

Home | Current Version | Previous Version | Text Only | Print | Product List | Glossary On
Versions: 1 2 3 4 5 6 7 8 9 10 11 12
000
FTUS42 TJSJ 242332
TAFJSJ
TAF
TJSJ 242332Z 2500/2524 26011KT P6SM SCT045 BKN070
     FM251400 15010KT P6SM SCT050
     FM252200 VRB03KT P6SM FEW040=

USA.gov is the U.S. government's official web portal to all federal, state and local government web resources and services.